createdAt,value
2023-02-27T00:00:17.572Z,51.08
2023-02-27T00:02:18.988Z,51.48
2023-02-27T00:04:20.353Z,51.77
2023-02-27T00:06:21.699Z,51.88
2023-02-27T00:08:23.041Z,51.64
2023-02-27T00:10:24.381Z,52.16
2023-02-27T00:12:25.668Z,52.28
2023-02-27T00:14:27.008Z,52.10
2023-02-27T00:16:28.478Z,51.95
2023-02-27T00:18:29.780Z,52.28
2023-02-27T00:20:32.370Z,52.54
2023-02-27T00:22:33.699Z,52.26
2023-02-27T00:24:35.122Z,52.23
2023-02-27T00:26:37.923Z,52.33
2023-02-27T00:28:39.248Z,52.28
2023-02-27T00:30:40.626Z,52.18
2023-02-27T00:32:42.048Z,52.26
2023-02-27T00:34:43.778Z,52.82
2023-02-27T00:36:45.160Z,52.79
2023-02-27T00:38:46.489Z,52.27
2023-02-27T00:40:47.824Z,52.21
2023-02-27T00:42:49.537Z,52.29
2023-02-27T00:44:50.851Z,52.28
2023-02-27T00:46:52.261Z,52.31
2023-02-27T00:48:53.634Z,52.35
2023-02-27T00:50:54.923Z,52.06
2023-02-27T00:52:56.264Z,52.02
2023-02-27T00:54:57.663Z,51.96
2023-02-27T00:56:59.063Z,52.26
2023-02-27T00:59:00.358Z,52.08
2023-02-27T01:01:01.765Z,52.20
2023-02-27T01:03:03.637Z,52.39
2023-02-27T01:05:04.920Z,52.66
2023-02-27T01:07:06.253Z,52.67
2023-02-27T01:09:07.585Z,52.67
2023-02-27T01:11:09.000Z,52.78
2023-02-27T01:13:11.317Z,52.68
2023-02-27T01:15:12.758Z,53.10
2023-02-27T01:17:14.102Z,53.20
2023-02-27T01:19:15.560Z,53.22
2023-02-27T01:21:16.976Z,53.33
2023-02-27T01:23:18.320Z,53.44
2023-02-27T01:25:19.619Z,53.61
2023-02-27T01:27:20.951Z,53.47
2023-02-27T01:29:22.251Z,53.58
2023-02-27T01:31:23.723Z,53.31
2023-02-27T01:33:25.119Z,53.80
2023-02-27T01:35:26.496Z,53.69
2023-02-27T01:37:27.972Z,53.44
2023-02-27T01:39:29.441Z,53.75
2023-02-27T01:41:31.610Z,54.07
2023-02-27T01:43:32.903Z,53.78
2023-02-27T01:45:34.449Z,54.11
2023-02-27T01:47:35.800Z,53.80
2023-02-27T01:49:37.132Z,53.79
2023-02-27T01:51:38.467Z,54.22
2023-02-27T01:53:39.765Z,53.78
2023-02-27T01:55:41.050Z,54.47
2023-02-27T01:57:42.420Z,53.25
2023-02-27T01:59:43.744Z,53.37
2023-02-27T02:01:45.071Z,53.34
2023-02-27T02:03:46.399Z,53.21
2023-02-27T02:05:47.723Z,53.16
2023-02-27T02:07:49.098Z,52.49
2023-02-27T02:09:50.863Z,52.56
2023-02-27T02:11:52.186Z,52.36
2023-02-27T02:13:53.526Z,52.48
2023-02-27T02:15:54.866Z,52.85
2023-02-27T02:17:56.155Z,52.93
2023-02-27T02:19:57.500Z,52.68
2023-02-27T02:21:58.792Z,52.70
2023-02-27T02:24:00.101Z,53.09
2023-02-27T02:26:02.249Z,53.93
2023-02-27T02:28:03.777Z,54.04
2023-02-27T02:30:05.300Z,53.83
2023-02-27T02:32:06.690Z,54.26
2023-02-27T02:34:08.034Z,53.68
2023-02-27T02:36:09.376Z,53.80
2023-02-27T02:38:10.783Z,53.85
2023-02-27T02:40:12.075Z,53.93
2023-02-27T02:42:13.417Z,53.76
2023-02-27T02:44:14.771Z,53.55
2023-02-27T02:46:16.089Z,54.22
2023-02-27T02:48:17.510Z,53.76
2023-02-27T02:50:18.861Z,53.97
2023-02-27T02:52:20.193Z,54.07
2023-02-27T02:54:21.498Z,53.91
2023-02-27T02:56:22.790Z,53.97
2023-02-27T02:58:24.125Z,53.92
2023-02-27T03:00:25.414Z,53.82
2023-02-27T03:02:26.737Z,54.74
2023-02-27T03:04:28.266Z,54.71
2023-02-27T03:06:30.842Z,54.54
2023-02-27T03:08:32.169Z,54.54
2023-02-27T03:10:33.656Z,54.33
2023-02-27T03:12:35.009Z,54.69
2023-02-27T03:14:36.321Z,54.15
2023-02-27T03:16:37.681Z,53.75
2023-02-27T03:18:39.002Z,53.96
2023-02-27T03:20:40.359Z,53.74
2023-02-27T03:22:41.753Z,53.55
2023-02-27T03:24:43.084Z,53.23
2023-02-27T03:26:44.379Z,53.27
2023-02-27T03:28:45.684Z,52.92
2023-02-27T03:30:47.112Z,52.85
2023-02-27T03:32:49.344Z,52.87
2023-02-27T03:34:50.700Z,53.38
2023-02-27T03:36:52.084Z,53.56
2023-02-27T03:38:53.376Z,53.86
2023-02-27T03:40:54.743Z,54.01
2023-02-27T03:42:56.079Z,54.04
2023-02-27T03:44:57.434Z,54.16
2023-02-27T03:46:58.737Z,53.96
2023-02-27T03:49:00.033Z,54.43
2023-02-27T03:51:01.391Z,54.45
2023-02-27T03:53:02.741Z,54.37
2023-02-27T03:55:04.387Z,54.37
2023-02-27T03:57:05.714Z,54.40
2023-02-27T03:59:07.034Z,54.48
2023-02-27T04:01:08.358Z,53.84
2023-02-27T04:03:09.719Z,54.39
2023-02-27T04:05:11.091Z,54.48
2023-02-27T04:07:25.029Z,54.43
2023-02-27T04:09:26.400Z,54.39
2023-02-27T04:11:28.059Z,54.10
2023-02-27T04:13:29.611Z,54.09
2023-02-27T04:15:30.939Z,54.71
2023-02-27T04:17:32.273Z,54.17
2023-02-27T04:19:33.615Z,54.36
2023-02-27T04:21:34.936Z,54.40
2023-02-27T04:23:36.240Z,54.29
2023-02-27T04:25:37.702Z,54.10
2023-02-27T04:27:38.990Z,53.49
2023-02-27T04:29:40.324Z,53.66
2023-02-27T04:31:41.672Z,53.28
2023-02-27T04:33:43.083Z,53.21
2023-02-27T04:35:44.427Z,52.98
2023-02-27T04:37:45.722Z,53.20
2023-02-27T04:39:47.070Z,53.73
2023-02-27T04:41:48.417Z,53.80
2023-02-27T04:43:49.758Z,53.68
2023-02-27T04:45:51.095Z,53.70
2023-02-27T04:47:52.449Z,54.04
2023-02-27T04:49:53.797Z,54.21
2023-02-27T04:51:55.084Z,53.89
2023-02-27T04:53:56.398Z,54.31
2023-02-27T04:55:57.727Z,54.26
2023-02-27T04:57:59.044Z,54.31
2023-02-27T05:00:00.400Z,54.47
2023-02-27T05:02:02.816Z,54.46
2023-02-27T05:04:04.346Z,54.41
2023-02-27T05:06:05.652Z,54.77
2023-02-27T05:08:06.996Z,54.61
2023-02-27T05:10:08.379Z,54.76
2023-02-27T05:12:09.668Z,54.75
2023-02-27T05:14:10.979Z,54.96
2023-02-27T05:16:12.333Z,55.21
2023-02-27T05:18:13.723Z,55.18
2023-02-27T05:20:15.131Z,55.53
2023-02-27T05:22:16.464Z,55.38
2023-02-27T05:24:17.762Z,55.52
2023-02-27T05:26:19.111Z,55.59
2023-02-27T05:28:23.167Z,55.69
2023-02-27T05:30:24.746Z,55.26
2023-02-27T05:32:26.227Z,55.25
2023-02-27T05:34:27.586Z,55.01
2023-02-27T05:36:28.871Z,55.72
2023-02-27T05:38:30.168Z,55.76
2023-02-27T05:40:31.497Z,55.06
2023-02-27T05:42:32.828Z,55.34
2023-02-27T05:44:34.171Z,55.32
2023-02-27T05:46:35.576Z,54.96
2023-02-27T05:48:36.971Z,55.04
2023-02-27T05:50:38.301Z,54.63
2023-02-27T05:52:39.630Z,54.48
2023-02-27T05:54:40.923Z,54.04
2023-02-27T05:56:42.218Z,53.76
2023-02-27T05:58:43.572Z,53.67
2023-02-27T06:00:44.951Z,53.76
2023-02-27T06:02:46.360Z,53.43
2023-02-27T06:04:47.812Z,53.35
2023-02-27T06:06:49.127Z,53.97
2023-02-27T06:08:50.503Z,54.04
2023-02-27T06:10:51.977Z,54.29
2023-02-27T06:12:53.289Z,54.27
2023-02-27T06:14:54.604Z,54.61
2023-02-27T06:16:55.956Z,54.36
2023-02-27T06:18:57.319Z,54.30
2023-02-27T06:20:58.661Z,54.12
2023-02-27T06:23:00.013Z,54.25
2023-02-27T06:25:01.367Z,54.44
2023-02-27T06:27:02.814Z,54.11
2023-02-27T06:29:04.133Z,54.59
2023-02-27T06:31:05.580Z,54.42
2023-02-27T06:33:07.045Z,54.58
2023-02-27T06:35:08.390Z,54.62
2023-02-27T06:37:09.731Z,55.20
2023-02-27T06:39:11.127Z,55.15
2023-02-27T06:41:12.673Z,55.07
2023-02-27T06:43:14.909Z,55.12
2023-02-27T06:45:16.259Z,54.78
2023-02-27T06:47:18.123Z,55.14
2023-02-27T06:49:19.478Z,55.30
2023-02-27T06:51:20.810Z,55.31
2023-02-27T06:53:22.223Z,55.25
2023-02-27T06:55:25.615Z,54.83
2023-02-27T06:57:26.949Z,55.32
2023-02-27T06:59:28.358Z,55.17
2023-02-27T07:01:29.758Z,54.83
2023-02-27T07:03:31.133Z,54.76
2023-02-27T07:05:32.427Z,54.91
2023-02-27T07:07:37.923Z,55.18
2023-02-27T07:09:40.042Z,55.46
2023-02-27T07:11:41.504Z,55.28
2023-02-27T07:13:42.834Z,54.71
2023-02-27T07:15:44.736Z,55.03
2023-02-27T07:17:46.048Z,54.47
2023-02-27T07:19:47.348Z,54.43
2023-02-27T07:21:48.694Z,54.33
2023-02-27T07:23:49.994Z,54.07
2023-02-27T07:25:51.386Z,54.32
2023-02-27T07:27:52.679Z,54.55
2023-02-27T07:29:56.670Z,54.89
2023-02-27T07:31:58.080Z,54.79
2023-02-27T07:33:59.410Z,54.88
2023-02-27T07:36:00.836Z,54.91
2023-02-27T07:38:02.165Z,55.29
2023-02-27T07:40:03.935Z,55.29
2023-02-27T07:42:05.282Z,55.15
2023-02-27T07:44:09.719Z,54.40
2023-02-27T07:46:11.100Z,54.90
2023-02-27T07:48:12.464Z,54.42
2023-02-27T07:50:14.205Z,54.14
2023-02-27T07:52:15.521Z,54.40
2023-02-27T07:54:16.813Z,54.35
2023-02-27T07:56:18.318Z,53.98
2023-02-27T07:58:19.680Z,53.83
2023-02-27T08:00:22.345Z,53.83
2023-02-27T08:02:23.681Z,47.25
2023-02-27T08:04:25.073Z,37.08
2023-02-27T08:06:26.725Z,37.81
2023-02-27T08:08:29.525Z,37.14
2023-02-27T08:10:30.821Z,41.00
2023-02-27T08:12:32.140Z,41.03
2023-02-27T08:14:33.491Z,40.47
2023-02-27T08:16:34.852Z,40.61
2023-02-27T08:18:36.237Z,40.50
2023-02-27T08:20:37.541Z,40.87
2023-02-27T08:22:38.900Z,41.68
2023-02-27T08:24:40.599Z,42.41
2023-02-27T08:26:41.978Z,42.71
2023-02-27T08:28:43.295Z,42.88
2023-02-27T08:30:45.084Z,43.24
2023-02-27T08:32:46.415Z,43.41
2023-02-27T08:34:47.756Z,43.63
2023-02-27T08:36:49.057Z,44.37
2023-02-27T08:38:50.359Z,44.19
2023-02-27T08:40:53.363Z,44.48
2023-02-27T08:42:54.667Z,44.70
2023-02-27T08:44:56.514Z,45.05
2023-02-27T08:46:57.818Z,44.97
2023-02-27T08:48:59.392Z,45.20
2023-02-27T08:51:00.728Z,45.61
2023-02-27T08:53:02.231Z,45.27
2023-02-27T08:55:03.660Z,45.56
2023-02-27T08:57:04.977Z,45.86
2023-02-27T08:59:06.332Z,46.18
2023-02-27T09:01:07.678Z,46.17
2023-02-27T09:03:09.135Z,46.34
2023-02-27T09:05:11.447Z,46.72
2023-02-27T09:07:13.321Z,46.63
2023-02-27T09:09:14.617Z,46.73
2023-02-27T09:11:15.959Z,47.50
2023-02-27T09:13:17.350Z,47.43
2023-02-27T09:15:18.733Z,47.76
2023-02-27T09:17:20.084Z,47.64
2023-02-27T09:19:21.624Z,47.82
2023-02-27T09:21:24.694Z,48.04
2023-02-27T09:23:26.118Z,48.40
2023-02-27T09:25:27.399Z,48.23
2023-02-27T09:27:28.803Z,48.58
2023-02-27T09:29:30.098Z,48.47
2023-02-27T09:31:33.419Z,48.28
2023-02-27T09:33:35.217Z,48.83
2023-02-27T09:35:37.457Z,48.66
2023-02-27T09:37:39.409Z,48.89
2023-02-27T09:39:40.728Z,48.62
2023-02-27T09:41:42.029Z,48.88
2023-02-27T09:43:46.299Z,48.77
2023-02-27T09:45:47.636Z,48.56
2023-02-27T09:47:50.756Z,49.05
2023-02-27T09:49:52.059Z,49.14
2023-02-27T09:51:53.552Z,48.87
2023-02-27T09:53:54.863Z,48.88
2023-02-27T09:55:56.211Z,49.15
2023-02-27T09:57:57.504Z,48.92
2023-02-27T09:59:58.838Z,48.96
2023-02-27T10:02:00.914Z,49.22
2023-02-27T10:04:02.272Z,48.92
2023-02-27T10:06:06.246Z,48.69
2023-02-27T10:08:08.366Z,48.49
2023-02-27T10:10:09.680Z,48.68
2023-02-27T10:12:10.994Z,48.49
2023-02-27T10:14:12.296Z,48.32
2023-02-27T10:16:13.636Z,48.40
2023-02-27T10:18:26.193Z,47.90
2023-02-27T10:20:29.669Z,47.68
2023-02-27T10:22:31.040Z,47.55
2023-02-27T10:24:32.470Z,47.87
2023-02-27T10:26:33.836Z,47.79
2023-02-27T10:28:35.157Z,47.85
2023-02-27T10:30:36.656Z,47.76
2023-02-27T10:32:38.188Z,47.83
2023-02-27T10:34:39.500Z,48.17
2023-02-27T10:36:41.140Z,48.21
2023-02-27T10:38:42.528Z,48.64
2023-02-27T10:40:43.870Z,48.31
2023-02-27T10:42:45.249Z,48.67
2023-02-27T10:44:46.621Z,48.52
2023-02-27T10:46:49.943Z,48.56
2023-02-27T10:48:52.695Z,49.04
2023-02-27T10:50:53.997Z,49.05
2023-02-27T10:52:55.337Z,49.06
2023-02-27T10:54:56.848Z,49.07
2023-02-27T10:56:58.179Z,49.19
2023-02-27T10:58:59.482Z,49.31
2023-02-27T11:01:00.811Z,48.82
2023-02-27T11:03:02.102Z,48.88
2023-02-27T11:05:03.408Z,49.21
2023-02-27T11:07:04.740Z,48.99
2023-02-27T11:09:06.068Z,49.48
2023-02-27T11:11:07.412Z,49.09
2023-02-27T11:13:08.751Z,49.59
2023-02-27T11:15:10.075Z,49.16
2023-02-27T11:17:11.378Z,49.09
2023-02-27T11:19:14.444Z,49.12
2023-02-27T11:21:15.912Z,49.08
2023-02-27T11:23:17.346Z,49.30
2023-02-27T11:25:19.122Z,49.15
2023-02-27T11:27:21.851Z,49.50
2023-02-27T11:29:23.167Z,48.99
2023-02-27T11:31:24.546Z,48.90
2023-02-27T11:33:25.955Z,48.65
2023-02-27T11:35:27.386Z,48.83
2023-02-27T11:37:28.680Z,48.52
2023-02-27T11:39:30.008Z,48.18
2023-02-27T11:41:31.375Z,47.96
2023-02-27T11:43:32.671Z,48.06
2023-02-27T11:46:04.751Z,48.08
2023-02-27T11:47:57.784Z,47.86
2023-02-27T11:50:00.057Z,48.30
2023-02-27T11:52:02.215Z,48.20
2023-02-27T11:54:03.554Z,48.56
2023-02-27T11:56:04.968Z,48.35
2023-02-27T11:58:06.255Z,48.25
2023-02-27T12:00:07.844Z,48.29
2023-02-27T12:02:09.348Z,48.54
2023-02-27T12:04:10.684Z,48.70
2023-02-27T12:06:12.110Z,48.37
2023-02-27T12:08:13.754Z,48.64
2023-02-27T12:10:15.136Z,48.82
2023-02-27T12:12:16.500Z,48.60
2023-02-27T12:14:17.850Z,49.06
2023-02-27T12:16:19.703Z,49.11
2023-02-27T12:18:21.106Z,49.14
2023-02-27T12:20:22.579Z,48.94
2023-02-27T12:22:23.986Z,48.84
2023-02-27T12:24:25.279Z,49.15
2023-02-27T12:26:26.882Z,49.23
2023-02-27T12:28:28.372Z,49.32
2023-02-27T12:30:29.690Z,49.53
2023-02-27T12:32:31.105Z,49.49
2023-02-27T12:34:32.457Z,49.64
2023-02-27T12:36:33.755Z,49.20
2023-02-27T12:38:37.905Z,49.27
2023-02-27T12:40:39.238Z,49.20
2023-02-27T12:42:40.532Z,49.41
2023-02-27T12:44:41.982Z,49.37
2023-02-27T12:46:43.385Z,49.06
2023-02-27T12:48:44.696Z,49.34
2023-02-27T12:50:46.024Z,49.37
2023-02-27T12:52:47.388Z,49.06
2023-02-27T12:54:48.790Z,48.70
2023-02-27T12:56:50.155Z,48.43
2023-02-27T12:58:51.507Z,48.58
2023-02-27T13:00:52.849Z,48.24
2023-02-27T13:02:54.213Z,48.51
2023-02-27T13:04:55.517Z,47.83
2023-02-27T13:06:56.820Z,47.88
2023-02-27T13:08:58.184Z,48.47
2023-02-27T13:10:59.572Z,48.15
2023-02-27T13:13:00.956Z,48.71
2023-02-27T13:15:02.267Z,48.65
2023-02-27T13:17:03.665Z,48.58
2023-02-27T13:19:05.096Z,49.21
2023-02-27T13:21:06.429Z,48.73
2023-02-27T13:23:07.760Z,48.79
2023-02-27T13:25:09.080Z,48.73
2023-02-27T13:27:10.373Z,49.29
2023-02-27T13:29:11.708Z,48.84
2023-02-27T13:31:13.007Z,49.36
2023-02-27T13:33:17.059Z,49.30
2023-02-27T13:35:18.691Z,49.45
2023-02-27T13:37:20.036Z,49.10
2023-02-27T13:39:21.358Z,49.20
2023-02-27T13:41:22.725Z,49.52
2023-02-27T13:43:24.048Z,49.22
2023-02-27T13:45:25.507Z,49.58
2023-02-27T13:47:26.895Z,49.47
2023-02-27T13:49:29.997Z,49.06
2023-02-27T13:51:32.698Z,49.33
2023-02-27T13:53:33.993Z,49.20
2023-02-27T13:55:35.425Z,49.43
2023-02-27T13:57:37.250Z,49.04
2023-02-27T13:59:39.664Z,48.98
2023-02-27T14:01:41.002Z,48.91
2023-02-27T14:03:42.487Z,48.96
2023-02-27T14:05:43.790Z,48.90
2023-02-27T14:07:45.112Z,48.92
2023-02-27T14:09:46.459Z,48.77
2023-02-27T14:11:47.859Z,48.58
2023-02-27T14:13:58.405Z,48.45
2023-02-27T14:16:00.933Z,48.35
2023-02-27T14:18:15.758Z,48.34
2023-02-27T14:20:27.098Z,48.73
2023-02-27T14:22:28.425Z,48.46
2023-02-27T14:24:29.743Z,48.73
2023-02-27T14:26:31.089Z,48.57
2023-02-27T14:28:32.491Z,48.77
2023-02-27T14:30:33.825Z,48.50
2023-02-27T14:32:35.162Z,48.64
2023-02-27T14:34:36.472Z,48.25
2023-02-27T14:36:38.041Z,48.47
2023-02-27T14:38:39.416Z,48.34
2023-02-27T14:40:40.714Z,48.73
2023-02-27T14:42:42.089Z,48.56
2023-02-27T14:44:43.758Z,48.63
2023-02-27T14:46:45.070Z,48.50
2023-02-27T14:48:46.404Z,48.91
2023-02-27T14:50:47.697Z,48.99
2023-02-27T14:52:49.021Z,48.99
2023-02-27T14:54:50.348Z,48.82
2023-02-27T14:56:51.645Z,48.70
2023-02-27T14:59:03.670Z,48.91
2023-02-27T15:01:05.483Z,48.96
2023-02-27T15:03:06.776Z,49.33
2023-02-27T15:05:08.236Z,49.24
2023-02-27T15:07:12.340Z,48.87
2023-02-27T15:09:13.685Z,48.95
2023-02-27T15:11:15.112Z,49.13
2023-02-27T15:13:16.413Z,49.26
2023-02-27T15:15:17.838Z,49.19
2023-02-27T15:17:19.205Z,49.12
2023-02-27T15:19:20.506Z,48.83
2023-02-27T15:21:22.028Z,48.78
2023-02-27T15:23:23.435Z,48.87
2023-02-27T15:25:24.744Z,48.55
2023-02-27T15:27:26.079Z,48.87
2023-02-27T15:29:27.414Z,48.36
2023-02-27T15:31:31.247Z,48.33
2023-02-27T15:33:32.848Z,48.54
2023-02-27T15:35:34.360Z,48.21
2023-02-27T15:37:35.864Z,47.78
2023-02-27T15:39:37.187Z,47.78
2023-02-27T15:41:38.636Z,47.94
2023-02-27T15:43:39.993Z,47.68
2023-02-27T15:45:42.593Z,47.81
2023-02-27T15:47:44.086Z,47.83
2023-02-27T15:49:45.403Z,48.16
2023-02-27T15:51:46.808Z,48.04
2023-02-27T15:53:48.114Z,48.20
2023-02-27T15:55:49.430Z,48.42
2023-02-27T15:58:02.725Z,48.09
2023-02-27T16:00:05.397Z,48.01
2023-02-27T16:02:06.748Z,48.21
2023-02-27T16:04:08.058Z,48.68
2023-02-27T16:06:10.244Z,48.26
2023-02-27T16:08:11.695Z,48.31
2023-02-27T16:10:13.054Z,48.54
2023-02-27T16:12:17.073Z,48.81
2023-02-27T16:14:18.403Z,48.65
2023-02-27T16:16:19.749Z,48.83
2023-02-27T16:18:21.156Z,49.21
2023-02-27T16:20:22.500Z,48.98
2023-02-27T16:22:24.582Z,48.98
2023-02-27T16:24:25.896Z,49.09
2023-02-27T16:26:28.048Z,49.06
2023-02-27T16:28:29.603Z,49.03
2023-02-27T16:30:33.920Z,49.20
2023-02-27T16:32:35.250Z,49.18
2023-02-27T16:34:45.206Z,49.14
2023-02-27T16:36:52.972Z,49.01
2023-02-27T16:38:54.283Z,49.31
2023-02-27T16:40:55.744Z,49.00
2023-02-27T16:42:57.394Z,48.86
2023-02-27T16:44:58.704Z,48.59
2023-02-27T16:46:59.995Z,48.88
2023-02-27T16:49:17.606Z,48.27
2023-02-27T16:51:24.344Z,48.35
2023-02-27T16:53:25.660Z,48.14
2023-02-27T16:55:26.975Z,47.89
2023-02-27T16:57:28.275Z,48.07
2023-02-27T16:59:29.617Z,47.78
2023-02-27T17:01:34.403Z,47.88
2023-02-27T17:03:38.457Z,47.91
2023-02-27T17:05:39.762Z,47.85
2023-02-27T17:07:41.093Z,47.37
2023-02-27T17:09:43.004Z,47.93
2023-02-27T17:11:47.435Z,47.65
2023-02-27T17:13:48.739Z,47.51
2023-02-27T17:15:50.035Z,48.02
2023-02-27T17:17:51.361Z,47.76
2023-02-27T17:19:52.663Z,48.32
2023-02-27T17:21:53.967Z,47.73
2023-02-27T17:23:55.292Z,47.91
2023-02-27T17:25:56.651Z,48.03
2023-02-27T17:28:00.935Z,48.12
2023-02-27T17:30:02.327Z,48.61
2023-02-27T17:32:03.691Z,48.39
2023-02-27T17:34:05.119Z,48.61
2023-02-27T17:36:06.564Z,48.50
2023-02-27T17:38:07.903Z,48.67
2023-02-27T17:40:09.264Z,48.56
2023-02-27T17:42:12.681Z,48.74
2023-02-27T17:44:19.766Z,49.14
2023-02-27T17:46:21.091Z,49.01
2023-02-27T17:48:25.059Z,48.66
2023-02-27T17:50:26.411Z,49.21
2023-02-27T17:52:27.747Z,49.08
2023-02-27T17:54:29.938Z,48.54
2023-02-27T17:56:31.275Z,48.70
2023-02-27T17:58:32.647Z,48.77
2023-02-27T18:00:34.088Z,48.73
2023-02-27T18:02:36.016Z,48.83
2023-02-27T18:04:37.373Z,49.28
2023-02-27T18:06:38.786Z,49.69
2023-02-27T18:08:40.086Z,49.53
2023-02-27T18:10:41.408Z,48.65
2023-02-27T18:12:42.762Z,48.69
2023-02-27T18:14:44.159Z,48.73
2023-02-27T18:16:48.120Z,47.57
2023-02-27T18:18:49.448Z,47.40
2023-02-27T18:20:50.741Z,47.00
2023-02-27T18:22:52.078Z,47.13
2023-02-27T18:24:53.879Z,46.80
2023-02-27T18:26:55.235Z,46.27
2023-02-27T18:28:56.969Z,46.76
2023-02-27T18:30:58.310Z,46.45
2023-02-27T18:32:59.646Z,46.72
2023-02-27T18:35:01.063Z,47.28
2023-02-27T18:37:02.360Z,46.98
2023-02-27T18:39:04.970Z,47.16
2023-02-27T18:41:06.306Z,46.71
2023-02-27T18:43:07.751Z,46.69
2023-02-27T18:45:09.471Z,47.00
2023-02-27T18:47:12.099Z,47.08
2023-02-27T18:49:16.218Z,47.36
2023-02-27T18:51:17.536Z,47.39
2023-02-27T18:53:18.839Z,47.25
2023-02-27T18:55:20.183Z,47.25
2023-02-27T18:57:21.532Z,46.68
2023-02-27T18:59:22.859Z,47.03
2023-02-27T19:01:24.210Z,47.02
2023-02-27T19:03:25.645Z,46.87
2023-02-27T19:05:26.994Z,46.54
2023-02-27T19:07:28.307Z,47.04
2023-02-27T19:09:32.678Z,46.90
2023-02-27T19:11:37.135Z,47.30
2023-02-27T19:13:44.589Z,46.50
2023-02-27T19:15:46.054Z,46.90
2023-02-27T19:17:47.627Z,47.27
2023-02-27T19:19:48.971Z,47.21
2023-02-27T19:21:50.300Z,47.31
2023-02-27T19:23:51.727Z,47.14
2023-02-27T19:25:53.008Z,47.60
2023-02-27T19:27:57.416Z,47.44
2023-02-27T19:30:02.162Z,47.82
2023-02-27T19:32:03.612Z,47.36
2023-02-27T19:34:05.043Z,46.87
2023-02-27T19:36:06.745Z,47.05
2023-02-27T19:38:12.547Z,46.74
2023-02-27T19:40:13.847Z,47.59
2023-02-27T19:42:16.064Z,47.71
2023-02-27T19:44:17.431Z,48.78
2023-02-27T19:46:19.018Z,48.54
2023-02-27T19:48:23.475Z,48.81
2023-02-27T19:50:25.221Z,48.69
2023-02-27T19:52:26.557Z,47.99
2023-02-27T19:54:27.872Z,48.29
2023-02-27T19:56:32.322Z,47.65
2023-02-27T19:58:36.523Z,48.04
2023-02-27T20:00:37.881Z,48.46
2023-02-27T20:02:42.181Z,47.89
2023-02-27T20:04:44.611Z,47.99
2023-02-27T20:06:53.639Z,47.97
2023-02-27T20:08:55.078Z,48.06
2023-02-27T20:10:56.667Z,48.16
2023-02-27T20:12:57.966Z,48.81
2023-02-27T20:14:59.328Z,47.95
2023-02-27T20:17:03.325Z,48.47
2023-02-27T20:19:04.690Z,48.53
2023-02-27T20:21:11.836Z,48.87
2023-02-27T20:23:15.408Z,48.37
2023-02-27T20:25:16.744Z,47.99
2023-02-27T20:27:18.083Z,48.11
2023-02-27T20:29:19.532Z,48.33
2023-02-27T20:31:21.289Z,48.41
2023-02-27T20:33:25.588Z,48.08
2023-02-27T20:35:26.901Z,48.63
2023-02-27T20:37:31.940Z,47.94
2023-02-27T20:39:33.278Z,48.38
2023-02-27T20:41:35.125Z,48.77
2023-02-27T20:43:38.368Z,48.25
2023-02-27T20:45:39.769Z,48.44
2023-02-27T20:47:41.175Z,48.70
2023-02-27T20:49:42.466Z,48.21
2023-02-27T20:51:43.798Z,48.42
2023-02-27T20:53:45.168Z,48.35
2023-02-27T20:55:46.509Z,47.79
2023-02-27T20:57:47.849Z,48.12
2023-02-27T20:59:50.364Z,48.62
2023-02-27T21:01:51.969Z,49.33
2023-02-27T21:03:55.198Z,48.68
2023-02-27T21:05:56.671Z,48.21
2023-02-27T21:07:58.136Z,48.45
2023-02-27T21:09:59.443Z,48.26
2023-02-27T21:12:00.731Z,48.43
2023-02-27T21:14:02.203Z,48.67
2023-02-27T21:16:04.408Z,47.70
2023-02-27T21:18:05.748Z,47.38
2023-02-27T21:20:07.113Z,47.63
2023-02-27T21:22:11.194Z,47.80
2023-02-27T21:24:14.678Z,48.50
2023-02-27T21:26:15.975Z,48.68
2023-02-27T21:28:17.384Z,48.94
2023-02-27T21:30:18.803Z,48.68
2023-02-27T21:32:23.139Z,48.79
2023-02-27T21:34:24.542Z,48.08
2023-02-27T21:36:26.036Z,48.13
2023-02-27T21:38:27.333Z,47.96
2023-02-27T21:40:28.635Z,48.00
2023-02-27T21:42:29.973Z,48.34
2023-02-27T21:44:32.004Z,47.96
2023-02-27T21:46:33.324Z,48.14
2023-02-27T21:48:34.656Z,48.19
2023-02-27T21:50:36.593Z,48.09
2023-02-27T21:52:40.816Z,48.48
2023-02-27T21:54:42.220Z,48.66
2023-02-27T21:56:43.518Z,48.42
2023-02-27T21:58:44.851Z,48.78
2023-02-27T22:00:46.287Z,49.14
2023-02-27T22:02:47.683Z,49.04
2023-02-27T22:04:49.055Z,50.75
2023-02-27T22:06:50.380Z,49.63
2023-02-27T22:08:54.369Z,47.87
2023-02-27T22:10:55.664Z,48.92
2023-02-27T22:12:57.003Z,49.54
2023-02-27T22:14:58.300Z,49.89
2023-02-27T22:16:59.703Z,49.75
2023-02-27T22:19:00.998Z,48.98
2023-02-27T22:21:02.301Z,48.74
2023-02-27T22:23:07.987Z,47.71
2023-02-27T22:25:09.327Z,36.67
2023-02-27T22:27:10.722Z,42.98
2023-02-27T22:29:12.072Z,42.53
2023-02-27T22:31:13.446Z,42.31
2023-02-27T22:33:15.731Z,42.47
2023-02-27T22:35:17.030Z,42.99
2023-02-27T22:37:19.824Z,43.56
2023-02-27T22:39:21.475Z,43.69
2023-02-27T22:41:23.724Z,43.54
2023-02-27T22:43:25.029Z,44.00
2023-02-27T22:45:26.392Z,44.29
2023-02-27T22:47:27.719Z,44.25
2023-02-27T22:49:29.024Z,44.54
2023-02-27T22:51:30.760Z,45.23
2023-02-27T22:53:38.418Z,44.94
2023-02-27T22:55:39.736Z,45.48
2023-02-27T22:57:41.087Z,45.77
2023-02-27T22:59:42.564Z,45.98
2023-02-27T23:01:43.916Z,46.32
2023-02-27T23:03:45.381Z,46.19
2023-02-27T23:05:46.744Z,46.65
2023-02-27T23:07:48.025Z,46.68
2023-02-27T23:09:49.335Z,46.90
2023-02-27T23:11:50.636Z,47.13
2023-02-27T23:13:51.933Z,47.33
2023-02-27T23:15:53.228Z,47.45
2023-02-27T23:17:58.425Z,47.55
2023-02-27T23:19:59.947Z,48.46
2023-02-27T23:22:01.243Z,48.12
2023-02-27T23:24:02.913Z,48.15
2023-02-27T23:26:04.274Z,48.93
2023-02-27T23:28:05.569Z,49.20
2023-02-27T23:30:07.084Z,48.86
2023-02-27T23:32:08.443Z,49.29
2023-02-27T23:34:09.837Z,49.49
2023-02-27T23:36:11.204Z,49.33
2023-02-27T23:38:12.498Z,49.40
2023-02-27T23:40:13.804Z,49.60
2023-02-27T23:42:15.750Z,49.92
2023-02-27T23:44:17.042Z,49.43
2023-02-27T23:46:18.379Z,49.77
2023-02-27T23:48:21.952Z,50.03
2023-02-27T23:50:23.264Z,50.27
2023-02-27T23:52:24.608Z,50.32
2023-02-27T23:54:25.917Z,49.99
2023-02-27T23:56:27.259Z,50.30
2023-02-27T23:58:28.556Z,50.77
